»·PEaware :: DAL227 KLAX-KPHX

DAL227 :: KLAX-KPHX

FLIGHT INFORMATION

Flight Status: Arrived
Operator:
Delta Air Lines
More flights by this operator :: More flights under this callsign
Pilot: Reece F. (16700)
Aircraft: BOEING 737-800
(B738)
More flights by this aircraft type
Origin: KLAX Los Angeles Intl
United States
Destination: KPHX Phoenix Sky Harbor Intl
United States
More flights between these airports :: More routes between these airports
Route: +HOLTZ3 TRM BLH HYDRR1
File this flight plan on PilotEdge
Remarks:
Altitude:
(Current/Filed)
32,000ft
Speed:
(Current/Filed)
0kts
Departed: 16-Sep-17 09:04 PM
Arrived: 16-Sep-17 10:21 PM
Distance/Time
Traveled:
321nm/1:16
Distance/Time
To Go:
Arrived

Flight Plot

Page will automatically refresh every two minutes.

Flight plan parsing failed; only flown route is shown


Map Options




Map Legend


Flown Route
Filed Route
Departure Airport
Arrival Airport
Navaid (VOR, NDB)
Fix

Horizontal Profiles

Position Reports

Time Latitude Longitude Heading Altitude Ground
Speed
16-Sep-17 20:28 33.941001 -118.401392 266 119ft 0kts
16-Sep-17 20:29 33.941001 -118.401392 266 119ft 0kts
16-Sep-17 20:30 33.941001 -118.401392 266 119ft 0kts
16-Sep-17 20:31 33.941001 -118.401392 266 119ft 0kts
16-Sep-17 20:32 33.941001 -118.401392 266 119ft 0kts
16-Sep-17 20:33 33.941001 -118.401392 266 119ft 0kts
16-Sep-17 20:34 33.941001 -118.401392 266 119ft 0kts
16-Sep-17 20:35 33.941001 -118.401392 266 119ft 0kts
16-Sep-17 20:36 33.941001 -118.401392 266 119ft 0kts
16-Sep-17 20:37 33.941001 -118.401392 266 119ft 0kts
16-Sep-17 20:38 33.941001 -118.401392 266 119ft 0kts
16-Sep-17 20:39 33.941001 -118.401392 266 119ft 0kts
16-Sep-17 20:40 33.941001 -118.401392 266 119ft 0kts
16-Sep-17 20:41 33.941001 -118.401392 266 119ft 0kts
16-Sep-17 20:42 33.941001 -118.401392 266 119ft 0kts
16-Sep-17 20:43 33.941001 -118.401392 266 119ft 0kts
16-Sep-17 20:44 33.941001 -118.401392 266 119ft 0kts
16-Sep-17 20:45 33.941001 -118.401392 266 119ft 0kts
16-Sep-17 20:46 33.941001 -118.401392 266 119ft 0kts
16-Sep-17 20:47 33.941001 -118.401392 266 119ft 0kts
16-Sep-17 20:48 33.941001 -118.401392 266 119ft 0kts
16-Sep-17 20:49 33.941001 -118.401392 266 119ft 0kts
16-Sep-17 20:50 33.941001 -118.401392 266 119ft 0kts
16-Sep-17 20:51 33.941001 -118.401392 266 119ft 0kts
16-Sep-17 20:52 33.941001 -118.401392 266 119ft 0kts
16-Sep-17 20:53 33.941001 -118.401392 266 119ft 0kts
16-Sep-17 20:54 33.941001 -118.401392 266 119ft 0kts
16-Sep-17 20:55 33.941001 -118.401392 266 119ft 0kts
16-Sep-17 20:56 33.941037 -118.400895 256 118ft 3kts
16-Sep-17 20:57 33.941361 -118.400592 177 118ft 3kts
16-Sep-17 20:58 33.941403 -118.400595 175 118ft 0kts
16-Sep-17 20:59 33.939915 -118.400533 157 118ft 19kts
16-Sep-17 21:00 33.939716 -118.398310 125 113ft 12kts
16-Sep-17 21:01 33.939148 -118.396438 85 110ft 16kts
16-Sep-17 21:02 33.939414 -118.393610 83 107ft 18kts
16-Sep-17 21:03 33.939798 -118.389975 85 104ft 27kts
16-Sep-17 21:04 33.940368 -118.384738 82 103ft 27kts
16-Sep-17 21:05 33.940636 -118.380690 108 100ft 0kts
16-Sep-17 21:06 33.940636 -118.380690 108 100ft 0kts
16-Sep-17 21:07 33.939721 -118.380945 264 100ft 22kts
16-Sep-17 21:08 33.939226 -118.386655 263 104ft 114kts
16-Sep-17 21:09 33.936522 -118.407737 263 683ft 218kts
16-Sep-17 21:10 33.917936 -118.470826 234 3008ft 257kts
16-Sep-17 21:11 33.883458 -118.522542 229 5070ft 267kts
16-Sep-17 21:12 33.836025 -118.551288 175 6009ft 264kts
16-Sep-17 21:13 33.784105 -118.542372 169 7716ft 291kts
16-Sep-17 21:14 33.731344 -118.529654 165 9371ft 295kts
16-Sep-17 21:15 33.689451 -118.482914 112 11218ft 287kts
16-Sep-17 21:16 33.662752 -118.402590 108 14147ft 341kts
16-Sep-17 21:17 33.646158 -118.322314 90 17259ft 361kts
16-Sep-17 21:18 33.644751 -118.234468 87 20301ft 373kts
16-Sep-17 21:19 33.644597 -118.153708 86 22851ft 380kts
16-Sep-17 21:20 33.644626 -118.070804 87 23548ft 431kts
16-Sep-17 21:21 33.644505 -117.978671 87 24218ft 476kts
16-Sep-17 21:22 33.644314 -117.903014 87 26573ft 463kts
16-Sep-17 21:23 33.644112 -117.805524 88 29856ft 433kts
16-Sep-17 21:24 33.643891 -117.730146 88 31109ft 440kts
16-Sep-17 21:25 33.643454 -117.634255 89 31450ft 477kts
16-Sep-17 21:26 33.642932 -117.530691 89 31866ft 509kts
16-Sep-17 21:27 33.642270 -117.416667 89 32398ft 538kts
16-Sep-17 21:28 33.641598 -117.305426 90 34057ft 535kts
16-Sep-17 21:29 33.640675 -117.194411 90 34710ft 549kts
16-Sep-17 21:30 33.639658 -117.076866 90 37638ft 512kts
16-Sep-17 21:31 33.638554 -116.960500 90 38223ft 482kts
16-Sep-17 21:32 33.637399 -116.848416 90 36936ft 468kts
16-Sep-17 21:33 33.636155 -116.736612 90 35460ft 456kts
16-Sep-17 21:34 33.634742 -116.620005 90 33769ft 448kts
16-Sep-17 21:35 33.633505 -116.518567 91 32089ft 446kts
16-Sep-17 21:36 33.632071 -116.417341 91 31159ft 459kts
16-Sep-17 21:37 33.630721 -116.329875 92 31577ft 465kts
16-Sep-17 21:38 33.629197 -116.227332 92 30917ft 445kts
16-Sep-17 21:39 33.627485 -116.126277 92 31069ft 451kts
16-Sep-17 21:40 33.625653 -116.023863 92 31055ft 450kts
16-Sep-17 21:41 33.623733 -115.921603 92 31058ft 450kts
16-Sep-17 21:42 33.621740 -115.819893 92 31059ft 450kts
16-Sep-17 21:43 33.619629 -115.716490 92 31060ft 450kts
16-Sep-17 21:44 33.617451 -115.614143 92 31084ft 456kts
16-Sep-17 21:45 33.615111 -115.508361 92 31168ft 460kts
16-Sep-17 21:46 33.612784 -115.406553 92 31155ft 459kts
16-Sep-17 21:47 33.610255 -115.299958 93 31158ft 460kts
16-Sep-17 21:48 33.607042 -115.170211 93 31166ft 460kts
16-Sep-17 21:49 33.603948 -115.050513 92 31468ft 447kts
16-Sep-17 21:50 33.601053 -114.939818 93 29662ft 443kts
16-Sep-17 21:51 33.598284 -114.838606 93 27853ft 432kts
16-Sep-17 21:52 33.595240 -114.741746 94 26084ft 422kts
16-Sep-17 21:53 33.591061 -114.639851 95 24190ft 410kts
16-Sep-17 21:54 33.586422 -114.529896 95 22863ft 378kts
16-Sep-17 21:55 33.581947 -114.427027 95 22920ft 382kts
16-Sep-17 21:56 33.577768 -114.332777 95 23244ft 416kts
16-Sep-17 21:57 33.573293 -114.232219 95 23336ft 426kts
16-Sep-17 21:58 33.568414 -114.124781 95 23310ft 425kts
16-Sep-17 21:59 33.563415 -114.017079 95 23314ft 425kts
16-Sep-17 22:00 33.558043 -113.903856 95 23534ft 442kts
16-Sep-17 22:01 33.552505 -113.788756 95 23484ft 440kts
16-Sep-17 22:02 33.547038 -113.677534 95 23504ft 439kts
16-Sep-17 22:03 33.541541 -113.567457 95 23897ft 421kts
16-Sep-17 22:04 33.536331 -113.464722 95 22308ft 398kts
16-Sep-17 22:05 33.531553 -113.372549 95 20542ft 387kts
16-Sep-17 22:06 33.526501 -113.276491 96 18630ft 375kts
16-Sep-17 22:07 33.521714 -113.186739 96 16798ft 365kts
16-Sep-17 22:08 33.516534 -113.090963 96 14797ft 355kts
16-Sep-17 22:09 33.511597 -113.000752 96 12867ft 346kts
16-Sep-17 22:10 33.506834 -112.914594 96 10952ft 339kts
16-Sep-17 22:11 33.501979 -112.827782 96 9781ft 310kts
16-Sep-17 22:12 33.497771 -112.754186 96 9895ft 332kts
16-Sep-17 22:13 33.492561 -112.663379 95 9907ft 333kts
16-Sep-17 22:14 33.487778 -112.581074 95 9908ft 333kts
16-Sep-17 22:15 33.483535 -112.508894 95 9283ft 320kts
16-Sep-17 22:16 33.479181 -112.436406 95 7651ft 321kts
16-Sep-17 22:17 33.475489 -112.373684 95 6522ft 314kts
16-Sep-17 22:18 33.460252 -112.309632 110 5570ft 291kts
16-Sep-17 22:19 33.456012 -112.246073 95 3792ft 308kts
16-Sep-17 22:20 33.440609 -112.179905 98 2267ft 296kts
16-Sep-17 22:21 33.442306 -112.124034 95 1890ft 222kts
16-Sep-17 22:22 33.441022 -112.082693 86 1436ft 188kts
16-Sep-17 22:23 33.440780 -112.045985 90 1338ft 158kts
16-Sep-17 22:24 33.440821 -112.015031 90 1124ft 90kts
16-Sep-17 22:25 33.438935 -112.007227 190 1131ft 24kts
16-Sep-17 22:26 33.437773 -112.007352 178 1128ft 0kts
16-Sep-17 22:27 33.437773 -112.007352 178 1128ft 0kts
16-Sep-17 22:28 33.437773 -112.007352 178 1128ft 0kts
16-Sep-17 22:29 33.437773 -112.007352 178 1128ft 0kts
16-Sep-17 22:30 33.437773 -112.007352 178 1128ft 0kts
16-Sep-17 22:31 33.437773 -112.007352 178 1128ft 0kts
16-Sep-17 22:32 33.437773 -112.007352 178 1128ft 0kts
16-Sep-17 22:33 33.437773 -112.007352 178 1128ft 0kts
16-Sep-17 22:34 33.437773 -112.007352 178 1128ft 0kts
16-Sep-17 22:35 33.437773 -112.007352 178 1128ft 0kts
16-Sep-17 22:36 33.437773 -112.007352 178 1128ft 0kts
16-Sep-17 22:37 33.437773 -112.007352 178 1128ft 0kts
16-Sep-17 22:38 33.437773 -112.007352 178 1128ft 0kts
16-Sep-17 22:39 33.437773 -112.007352 178 1128ft 0kts

Navigation Log

Ident Type
Flight plan parsing failed, navigation log unavailable